Aurora, CO

8:29 AM MDT on July 30, 2016 (GMT -0600)
Denver | | Change Station

Elev 5430 ft 39.85 °N, 104.66 °W | Updated 5 minutes ago

Scattered Clouds
Scattered Clouds
67 °F
Feels Like 67 °F
N
10
Wind Variable Wind from NNW

Today
High -- | Low -- °F
--% Chance of Precip.
Yesterday
High -- | Low -- °F
Precip. -- in
Pressure 30.06 in
Visibility 8.0 miles
Clouds Scattered Clouds 800 ft
Scattered Clouds 12000 ft
Dew Point 59 °F
Humidity 76%
Rainfall 0.00 in
Snow Depth Not available.
5:56 AM 8:13 PM
Waning Crescent, 13% visible
SPECI KDEN 301424Z 34009KT 8SM SCT008 SCT120 19/15 A3006 RMK AO2 HZ ALQDS T01940150
Pressure 30.06 in
Visibility 8.0 miles
Clouds Scattered Clouds 800 ft
Scattered Clouds 12000 ft
Dew Point 59 °F
Humidity 76%
Rainfall 0.00 in
Snow Depth Not available.
5:56 AM 8:13 PM
Waning Crescent, 13% visible
SPECI KDEN 301424Z 34009KT 8SM SCT008 SCT120 19/15 A3006 RMK AO2 HZ ALQDS T01940150

10-Day Weather Forecast

Almanac

Astronomy

Jul. 30, 2016 Rise Set
Actual Time
Civil Twilight
Nautical Twilight
Astronomical Twilight
Moon
Length of Visible Light
Length of Day
Tomorrow will be .
, % of the Moon is Illuminated

Today's Extremes

State Highs State Lows

Community

WunderPhotos

Upload Photos

1,928,565 photos uploaded!

WunderBlog® & News

Nearby

Air Quality

  Air Quality AQ Index Pollutant
Not available.

Snow Depth

Station Depth Elevation

Earthquake Activity

City Distance Mag. Time & Date
Minimum magnitude displayed is 2.5.

Coastal Water Temperatures

Place Temperature

Stations

Nearby Weather Stations

Station Location Temp. Windchill Dew Point Humidity Wind Precip. Elev Updated Type
                   

Watches & Warnings

There are currently no watches in effect.